Time;durP1;ratioP1;P1;durP2;ratioP2;P2;SDS_P1;SDS_P2;PMS_P1;PMS_P2;Temp;Humidity;BMP_temperature;BMP_pressure;BME280_temperature;BME280_humidity;BME280_pressure;Samples;Min_cycle;Max_cycle;Signal;HPM_P1;HPM_P2
2024/04/10 00:00:59;;;;;;;1.48;1.33;;;8.60;91.20;;;;;;5002737;28;20034;-92
2024/04/10 00:03:25;;;;;;;3.95;1.98;;;8.60;91.50;;;;;;5019227;28;20065;-92
2024/04/10 00:06:04;;;;;;;4.40;1.33;;;8.60;91.50;;;;;;5019824;28;20098;-92
2024/04/10 00:08:33;;;;;;;3.80;1.20;;;8.60;91.40;;;;;;5001861;28;20026;-90
2024/04/10 00:11:02;;;;;;;4.05;0.90;;;8.60;91.50;;;;;;5000901;28;20049;-92
2024/04/10 00:13:29;;;;;;;4.65;1.27;;;8.50;91.90;;;;;;5018701;28;20022;-90
2024/04/10 00:15:59;;;;;;;2.83;1.10;;;8.50;92.00;;;;;;5009475;28;20480;-90
2024/04/10 00:18:25;;;;;;;3.40;1.42;;;8.50;92.50;;;;;;5019384;28;20452;-92
2024/04/10 00:20:50;;;;;;;4.75;1.45;;;8.50;92.60;;;;;;5008676;28;20061;-90
2024/04/10 00:23:18;;;;;;;2.35;1.48;;;8.40;92.40;;;;;;5019265;28;20021;-90
2024/04/10 00:25:58;;;;;;;3.42;1.45;;;8.40;92.60;;;;;;5001565;28;20023;-90
2024/04/10 00:28:25;;;;;;;3.85;1.83;;;8.50;92.50;;;;;;5001381;28;20026;-90
2024/04/10 00:30:51;;;;;;;3.83;1.13;;;8.40;92.80;;;;;;5019030;28;20078;-91
2024/04/10 00:33:18;;;;;;;5.00;1.92;;;8.40;93.00;;;;;;5002441;28;20029;-89
2024/04/10 00:36:02;;;;;;;2.28;1.27;;;8.30;93.10;;;;;;5011243;28;20031;-91
2024/04/10 00:38:30;;;;;;;4.47;1.42;;;8.30;93.60;;;;;;5018905;28;20078;-93
2024/04/10 00:41:01;;;;;;;3.25;2.25;;;8.20;94.00;;;;;;5008537;28;20041;-92
2024/04/10 00:43:27;;;;;;;5.47;2.88;;;8.20;94.30;;;;;;5002416;28;20506;-91
2024/04/10 00:46:18;;;;;;;6.13;2.25;;;8.20;93.90;;;;;;5010302;28;20037;-91
2024/04/10 00:48:45;;;;;;;3.92;1.70;;;8.20;93.90;;;;;;5007999;28;20036;-92
2024/04/10 00:51:12;;;;;;;3.33;1.13;;;8.10;93.70;;;;;;5018850;28;20024;-92
2024/04/10 00:53:40;;;;;;;3.40;1.25;;;8.10;93.80;;;;;;5015793;28;20113;-92
2024/04/10 00:56:06;;;;;;;3.20;1.75;;;8.10;93.90;;;;;;5018600;28;20034;-92
2024/04/10 00:58:34;;;;;;;5.07;1.50;;;8.00;94.00;;;;;;5023159;28;20048;-92
2024/04/10 01:01:01;;;;;;;4.40;2.38;;;8.00;94.00;;;;;;5006979;28;20138;-91
2024/04/10 01:03:30;;;;;;;5.65;1.63;;;8.00;94.10;;;;;;5006668;28;20038;-90
2024/04/10 01:06:03;;;;;;;5.18;1.45;;;7.90;94.10;;;;;;5017194;28;20033;-89
2024/04/10 01:08:30;;;;;;;4.18;1.35;;;7.90;94.00;;;;;;5000594;28;20018;-90
2024/04/10 01:10:59;;;;;;;3.13;1.88;;;7.90;94.40;;;;;;5018822;28;20052;-91
2024/04/10 01:13:26;;;;;;;9.02;1.98;;;7.90;94.40;;;;;;5018856;28;20030;-93
2024/04/10 01:15:51;;;;;;;2.83;1.70;;;7.80;94.20;;;;;;5007172;28;20048;-91
2024/04/10 01:18:17;;;;;;;1.98;1.02;;;7.90;94.60;;;;;;5018001;28;20109;-92
2024/04/10 01:20:43;;;;;;;6.85;1.70;;;7.80;94.30;;;;;;5010295;28;20037;-91
2024/04/10 01:23:09;;;;;;;1.88;1.23;;;7.90;94.50;;;;;;5021409;28;20033;-91
2024/04/10 01:25:34;;;;;;;4.03;1.58;;;7.80;94.70;;;;;;5022998;28;20087;-91
2024/04/10 01:28:00;;;;;;;3.33;1.63;;;7.80;94.20;;;;;;5022434;28;20025;-90
2024/04/10 01:30:26;;;;;;;3.47;1.42;;;7.70;94.30;;;;;;5004184;28;20774;-90
2024/04/10 01:32:51;;;;;;;4.38;3.40;;;7.70;94.10;;;;;;5021665;28;20439;-90
2024/04/10 01:35:17;;;;;;;5.03;1.48;;;7.70;94.00;;;;;;5023662;28;20103;-93
2024/04/10 01:37:43;;;;;;;6.70;1.63;;;7.70;94.00;;;;;;5022199;28;20037;-92
2024/04/10 01:40:09;;;;;;;2.72;1.88;;;7.80;93.50;;;;;;5012094;28;20033;-92
2024/04/10 01:42:42;;;;;;;3.58;1.55;;;7.70;93.20;;;;;;5014123;28;20050;-92
2024/04/10 01:45:08;;;;;;;3.92;1.50;;;7.60;93.30;;;;;;5015121;28;20077;-91
2024/04/10 01:47:33;;;;;;;5.22;1.30;;;7.70;93.20;;;;;;5024251;28;20025;-91
2024/04/10 01:49:59;;;;;;;2.30;1.40;;;7.60;93.30;;;;;;5005136;28;20025;-91
2024/04/10 01:52:25;;;;;;;5.57;1.63;;;7.70;93.60;;;;;;5006479;28;20025;-90
2024/04/10 01:54:52;;;;;;;4.72;1.13;;;7.60;93.40;;;;;;5021546;28;20030;-90
2024/04/10 01:57:17;;;;;;;3.72;1.58;;;7.60;93.10;;;;;;5003412;28;20052;-91
2024/04/10 01:59:43;;;;;;;3.65;1.73;;;7.60;92.80;;;;;;5021905;28;20488;-90
2024/04/10 02:02:09;;;;;;;4.28;0.85;;;7.60;92.30;;;;;;5019510;28;20054;-90
2024/04/10 02:04:34;;;;;;;3.28;1.65;;;7.70;92.50;;;;;;5013404;28;20045;-90
2024/04/10 02:07:00;;;;;;;5.35;1.92;;;7.60;92.80;;;;;;5005732;28;20034;-91
2024/04/10 02:09:26;;;;;;;6.78;2.20;;;7.60;93.10;;;;;;5019983;28;20025;-91
2024/04/10 02:11:52;;;;;;;3.08;1.52;;;7.60;93.20;;;;;;5020964;28;20022;-90
2024/04/10 02:14:18;;;;;;;6.28;1.30;;;7.70;93.40;;;;;;5015430;28;20142;-91
2024/04/10 02:16:43;;;;;;;6.30;2.67;;;7.60;93.40;;;;;;5015996;28;20078;-91
2024/04/10 02:19:10;;;;;;;5.32;1.80;;;7.60;93.70;;;;;;5006686;28;20105;-91
2024/04/10 02:21:35;;;;;;;6.25;1.40;;;7.70;93.90;;;;;;5021633;28;20033;-92
2024/04/10 02:24:01;;;;;;;2.65;1.58;;;7.70;93.90;;;;;;5021839;28;20032;-90
2024/04/10 02:26:27;;;;;;;10.77;1.83;;;7.70;94.20;;;;;;5023489;28;20042;-91
2024/04/10 02:28:53;;;;;;;6.05;1.85;;;7.80;94.20;;;;;;5018613;28;20049;-90
2024/04/10 02:31:18;;;;;;;3.67;2.53;;;7.80;93.80;;;;;;5017622;28;20080;-91
2024/04/10 02:33:44;;;;;;;4.90;0.90;;;7.80;94.10;;;;;;5030189;28;20021;-90
2024/04/10 02:36:10;;;;;;;5.70;1.17;;;7.80;94.20;;;;;;5028009;28;20049;-91
2024/04/10 02:38:36;;;;;;;4.18;1.45;;;7.80;94.30;;;;;;5036426;28;20022;-92
2024/04/10 02:41:02;;;;;;;2.58;1.50;;;7.90;93.80;;;;;;5039371;28;20018;-92
2024/04/10 02:43:28;;;;;;;2.35;1.42;;;7.90;93.70;;;;;;5038753;28;20022;-92
2024/04/10 02:45:58;;;;;;;5.18;2.28;;;7.90;93.50;;;;;;5039496;28;20899;-93
2024/04/10 02:48:25;;;;;;;4.45;1.85;;;8.00;93.20;;;;;;5039582;28;20014;-93
2024/04/10 02:50:51;;;;;;;6.03;1.30;;;8.00;92.90;;;;;;5039691;28;20010;-93
2024/04/10 02:53:18;;;;;;;6.13;2.22;;;8.00;92.20;;;;;;5022593;28;20009;-92
2024/04/10 02:55:44;;;;;;;8.23;2.22;;;8.00;92.20;;;;;;5039811;28;20029;-92
2024/04/10 02:58:10;;;;;;;5.45;1.67;;;8.00;91.90;;;;;;5022502;28;20049;-90
2024/04/10 03:00:43;;;;;;;5.20;1.48;;;8.10;92.00;;;;;;5029162;28;20060;-89
2024/04/10 03:03:09;;;;;;;4.80;1.33;;;8.10;91.10;;;;;;5022608;28;20129;-91
2024/04/10 03:05:35;;;;;;;5.32;2.95;;;8.10;91.30;;;;;;5011615;28;20474;-91
2024/04/10 03:08:00;;;;;;;6.20;1.63;;;8.10;90.80;;;;;;5022448;28;20479;-91
2024/04/10 03:10:26;;;;;;;3.30;2.17;;;8.00;90.30;;;;;;5020230;28;20036;-92
2024/04/10 03:12:52;;;;;;;6.70;1.73;;;8.00;89.90;;;;;;5000656;28;20030;-90
2024/04/10 03:15:17;;;;;;;4.30;1.20;;;8.00;90.10;;;;;;5006804;28;20022;-90
2024/04/10 03:17:46;;;;;;;4.82;1.75;;;8.00;89.60;;;;;;5011529;28;20376;-90
2024/04/10 03:20:13;;;;;;;3.92;1.50;;;8.00;90.30;;;;;;5011237;28;20018;-91
2024/04/10 03:22:39;;;;;;;8.80;1.42;;;8.00;90.70;;;;;;5019948;28;20041;-92
2024/04/10 03:25:05;;;;;;;4.00;2.13;;;7.90;90.40;;;;;;5004456;28;20032;-89
2024/04/10 03:27:30;;;;;;;6.18;1.55;;;7.90;90.60;;;;;;5019098;28;20030;-92
2024/04/10 03:29:56;;;;;;;3.20;1.35;;;7.90;90.30;;;;;;5012414;28;20599;-90
2024/04/10 03:32:22;;;;;;;5.90;1.95;;;8.00;89.80;;;;;;5005321;28;20027;-92
2024/04/10 03:34:48;;;;;;;2.53;1.40;;;8.00;89.40;;;;;;5002743;28;20073;-91
2024/04/10 03:37:14;;;;;;;3.85;1.30;;;7.90;89.30;;;;;;5002222;28;20065;-90
2024/04/10 03:39:41;;;;;;;3.20;2.03;;;7.90;89.70;;;;;;5002889;28;20033;-90
2024/04/10 03:42:07;;;;;;;5.32;1.40;;;7.80;89.50;;;;;;5019488;28;20042;-91
2024/04/10 03:44:35;;;;;;;3.47;1.58;;;7.80;89.90;;;;;;5020106;28;20507;-91
2024/04/10 03:47:02;;;;;;;2.97;1.50;;;7.80;90.10;;;;;;5019829;28;20077;-91
2024/04/10 03:49:28;;;;;;;4.18;2.03;;;7.80;90.00;;;;;;5020333;28;20018;-91
2024/04/10 03:51:54;;;;;;;8.38;1.67;;;7.60;90.60;;;;;;5020687;28;20026;-91
2024/04/10 03:54:20;;;;;;;3.83;1.52;;;7.60;90.80;;;;;;5014511;28;20019;-89
2024/04/10 03:56:45;;;;;;;4.70;2.03;;;7.60;91.10;;;;;;5004877;28;20029;-90
2024/04/10 03:59:11;;;;;;;3.88;1.85;;;7.50;91.30;;;;;;5014093;28;20033;-92
2024/04/10 04:01:37;;;;;;;5.43;0.88;;;7.50;91.70;;;;;;5003142;28;20100;-93
2024/04/10 04:04:05;;;;;;;5.95;1.63;;;7.50;92.00;;;;;;5000636;28;20026;-91
2024/04/10 04:06:31;;;;;;;4.72;1.80;;;7.40;92.30;;;;;;5021193;28;20034;-91
2024/04/10 04:08:56;;;;;;;5.45;0.90;;;7.40;92.60;;;;;;5006881;28;20081;-91
2024/04/10 04:11:23;;;;;;;6.10;1.80;;;7.40;92.10;;;;;;5003724;28;20080;-89
2024/04/10 04:13:48;;;;;;;2.63;0.98;;;7.40;92.70;;;;;;5002265;28;20052;-93
2024/04/10 04:16:14;;;;;;;6.45;1.75;;;7.30;92.80;;;;;;4997762;28;20029;-90
2024/04/10 04:18:40;;;;;;;4.72;1.75;;;7.30;93.20;;;;;;5014007;28;20026;-91
2024/04/10 04:21:06;;;;;;;2.20;1.88;;;7.30;93.00;;;;;;5017408;28;20026;-92
2024/04/10 04:23:32;;;;;;;3.17;1.08;;;7.20;93.00;;;;;;5020418;28;20113;-90
2024/04/10 04:25:58;;;;;;;10.30;2.05;;;7.20;93.30;;;;;;5021415;28;20026;-92
2024/04/10 04:28:24;;;;;;;5.55;1.98;;;7.20;93.50;;;;;;5020605;28;20026;-90
2024/04/10 04:30:50;;;;;;;7.43;1.98;;;7.20;94.00;;;;;;5021364;28;20132;-93
2024/04/10 04:33:17;;;;;;;8.43;2.70;;;7.10;94.30;;;;;;5017925;28;20397;-92
2024/04/10 04:35:42;;;;;;;6.63;1.27;;;7.10;94.10;;;;;;5013642;28;20518;-92
2024/04/10 04:38:09;;;;;;;1.88;1.30;;;7.00;94.10;;;;;;5020470;28;20042;-91
2024/04/10 04:40:42;;;;;;;4.38;1.45;;;7.00;94.40;;;;;;5021315;28;20121;-91
2024/04/10 04:43:08;;;;;;;4.93;1.05;;;6.90;94.90;;;;;;5014890;28;20043;-92
2024/04/10 04:45:38;;;;;;;7.65;1.55;;;6.90;95.00;;;;;;5010731;28;20065;-91
2024/04/10 04:48:07;;;;;;;3.13;1.65;;;6.90;95.00;;;;;;5000768;28;20019;-92
2024/04/10 04:50:34;;;;;;;7.93;1.67;;;6.90;95.10;;;;;;4995568;28;20022;-91
2024/04/10 04:52:59;;;;;;;6.82;1.60;;;6.90;94.90;;;;;;5021463;28;20030;-92
2024/04/10 04:55:26;;;;;;;7.38;1.52;;;6.80;95.10;;;;;;5024989;28;20103;-92
2024/04/10 04:57:51;;;;;;;5.30;1.50;;;6.80;95.40;;;;;;5030993;28;20028;-91
2024/04/10 05:00:20;;;;;;;4.13;1.30;;;6.80;95.40;;;;;;5023103;28;20022;-91
2024/04/10 05:02:46;;;;;;;3.17;1.20;;;6.80;95.40;;;;;;5028034;28;20491;-91
2024/04/10 05:05:13;;;;;;;5.97;1.38;;;6.70;95.40;;;;;;5025665;28;20029;-93
2024/04/10 05:07:43;;;;;;;2.70;1.20;;;6.70;96.10;;;;;;5033813;28;20021;-91
2024/04/10 05:11:44;;;;;;;6.28;1.85;;;6.60;96.20;;;;;;5526016;25;20363;-91
2024/04/10 05:14:11;;;;;;;5.15;1.45;;;6.60;96.60;;;;;;5474646;26;19998;-91
2024/04/10 05:16:37;;;;;;;4.95;1.08;;;6.50;96.90;;;;;;5467655;26;20406;-92
2024/04/10 05:19:04;;;;;;;4.90;2.33;;;6.50;96.70;;;;;;5472119;26;20007;-90
2024/04/10 05:21:30;;;;;;;5.28;1.77;;;6.40;97.20;;;;;;5474244;26;20006;-89
2024/04/10 05:23:56;;;;;;;2.72;1.25;;;6.40;97.50;;;;;;5473058;26;20017;-91
2024/04/10 05:26:22;;;;;;;3.25;1.55;;;6.30;98.10;;;;;;5471065;26;20871;-90
2024/04/10 05:28:48;;;;;;;5.57;1.67;;;6.30;98.40;;;;;;5470553;26;20007;-90
2024/04/10 05:31:14;;;;;;;3.78;2.10;;;6.30;98.20;;;;;;5471365;26;20072;-90
2024/04/10 05:33:39;;;;;;;6.25;2.60;;;6.30;98.70;;;;;;5492312;26;19998;-88
2024/04/10 05:36:05;;;;;;;4.20;1.63;;;6.30;99.10;;;;;;5463153;26;20228;-90
2024/04/10 05:38:32;;;;;;;8.95;1.83;;;6.30;98.70;;;;;;5469570;26;19995;-92
2024/04/10 05:40:58;;;;;;;8.70;2.00;;;6.30;98.40;;;;;;5468386;26;19998;-90
2024/04/10 05:43:24;;;;;;;5.07;1.55;;;6.30;98.80;;;;;;5473221;26;20001;-89
2024/04/10 05:45:54;;;;;;;5.82;1.75;;;6.30;98.90;;;;;;5461810;26;19997;-90
2024/04/10 05:48:19;;;;;;;4.00;2.03;;;6.30;98.90;;;;;;5459721;25;20132;-89
2024/04/10 05:50:45;;;;;;;5.85;1.98;;;6.40;98.50;;;;;;5462943;26;20432;-89
2024/04/10 05:53:11;;;;;;;5.00;2.35;;;6.40;98.20;;;;;;5465489;26;20009;-91
2024/04/10 05:55:37;;;;;;;15.68;1.60;;;6.50;97.90;;;;;;5454553;26;19999;-91
2024/04/10 05:58:03;;;;;;;4.03;2.40;;;6.60;97.60;;;;;;5468755;26;19998;-91
2024/04/10 06:00:29;;;;;;;6.47;3.38;;;6.60;97.40;;;;;;5463786;26;20426;-91
2024/04/10 06:02:54;;;;;;;3.90;1.35;;;6.70;97.00;;;;;;5483709;25;20002;-91
2024/04/10 06:05:20;;;;;;;3.63;2.22;;;6.70;96.80;;;;;;5455722;26;20006;-91
2024/04/10 06:07:46;;;;;;;8.93;1.83;;;6.80;96.40;;;;;;5474431;26;20003;-90
2024/04/10 06:10:12;;;;;;;2.78;1.80;;;6.90;96.20;;;;;;5460964;26;20356;-89
2024/04/10 06:12:37;;;;;;;4.55;1.38;;;6.80;96.40;;;;;;5482226;26;19995;-89
2024/04/10 06:15:03;;;;;;;7.38;1.88;;;6.90;96.70;;;;;;5439035;26;20047;-91
2024/04/10 06:17:29;;;;;;;6.88;2.03;;;7.00;96.20;;;;;;5456260;26;19995;-90
2024/04/10 06:19:58;;;;;;;3.97;1.85;;;6.90;96.00;;;;;;5449901;26;20006;-88
2024/04/10 06:22:24;;;;;;;8.38;2.15;;;7.00;95.80;;;;;;5433625;26;20003;-90
2024/04/10 06:24:51;;;;;;;6.85;2.50;;;7.10;96.20;;;;;;5432068;26;20481;-90
2024/04/10 06:27:17;;;;;;;5.28;1.67;;;7.20;95.50;;;;;;5433659;26;20030;-90
2024/04/10 06:29:43;;;;;;;3.92;1.30;;;7.30;95.20;;;;;;5437796;26;20014;-90
2024/04/10 06:32:09;;;;;;;4.18;1.30;;;7.30;94.80;;;;;;5438714;26;20457;-89
2024/04/10 06:34:35;;;;;;;2.67;1.20;;;7.40;94.20;;;;;;5449389;26;20006;-90
2024/04/10 06:37:02;;;;;;;6.32;2.10;;;7.60;93.50;;;;;;5436245;26;20003;-91
2024/04/10 06:39:27;;;;;;;6.03;2.38;;;7.60;93.00;;;;;;5454689;26;19999;-93
2024/04/10 06:41:53;;;;;;;6.47;2.17;;;7.60;92.00;;;;;;5439536;26;19999;-93
2024/04/10 06:44:19;;;;;;;5.10;1.60;;;7.70;91.30;;;;;;5445124;26;19995;-91
2024/04/10 06:46:44;;;;;;;4.72;1.88;;;7.80;91.30;;;;;;5455817;26;20474;-90
2024/04/10 06:49:11;;;;;;;2.92;1.70;;;7.80;89.60;;;;;;5457215;26;20018;-90
2024/04/10 06:51:37;;;;;;;3.47;2.13;;;7.90;89.40;;;;;;5459681;26;19999;-92
2024/04/10 06:54:04;;;;;;;7.45;1.83;;;8.00;89.40;;;;;;5458164;26;20385;-90
2024/04/10 06:56:30;;;;;;;5.40;1.10;;;8.10;88.30;;;;;;5457680;26;20014;-89
2024/04/10 06:58:58;;;;;;;7.30;1.95;;;8.10;87.90;;;;;;5456047;26;20072;-91
2024/04/10 07:01:24;;;;;;;5.22;2.13;;;8.20;86.80;;;;;;5446541;26;20005;-90
2024/04/10 07:03:50;;;;;;;5.95;1.48;;;8.30;86.80;;;;;;5457063;26;20002;-89
2024/04/10 07:06:17;;;;;;;6.95;1.55;;;8.40;85.50;;;;;;5456680;26;20006;-90
2024/04/10 07:08:48;;;;;;;8.43;1.80;;;8.50;85.70;;;;;;5457298;26;20450;-90
2024/04/10 07:11:21;;;;;;;7.18;1.42;;;8.50;86.20;;;;;;5457822;26;19999;-89
2024/04/10 07:13:48;;;;;;;7.35;1.85;;;8.70;84.30;;;;;;5452415;26;20003;-91
2024/04/10 07:16:14;;;;;;;7.55;1.83;;;8.80;84.10;;;;;;5460772;26;19987;-92
2024/04/10 07:18:40;;;;;;;6.35;1.98;;;8.80;83.60;;;;;;5465087;26;19999;-90
2024/04/10 07:21:12;;;;;;;5.72;1.27;;;8.80;83.60;;;;;;5458013;26;20011;-91
2024/04/10 07:23:40;;;;;;;7.10;2.42;;;8.80;84.00;;;;;;5459977;26;19991;-90
2024/04/10 07:26:22;;;;;;;4.20;1.50;;;8.90;83.90;;;;;;5454765;26;20031;-90
2024/04/10 07:28:55;;;;;;;5.20;1.40;;;8.90;81.70;;;;;;5466563;26;20006;-90
2024/04/10 07:31:28;;;;;;;4.70;3.30;;;9.10;83.20;;;;;;5468613;21;20050;-92
2024/04/10 07:33:58;;;;;;;4.82;1.63;;;9.30;82.40;;;;;;5387247;26;20095;-93
2024/04/10 07:36:24;;;;;;;6.35;2.17;;;9.40;82.60;;;;;;5391558;26;20070;-92
2024/04/10 07:38:53;;;;;;;4.38;3.08;;;9.40;81.30;;;;;;5389845;26;20004;-93
2024/04/10 07:41:20;;;;;;;7.38;1.40;;;9.60;80.40;;;;;;5376459;26;20000;-93
2024/04/10 07:43:46;;;;;;;5.78;3.28;;;9.60;78.10;;;;;;5372394;26;20438;-93
2024/04/10 07:46:19;;;;;;;10.20;2.20;;;9.70;80.30;;;;;;5377498;26;20464;-91
2024/04/10 07:48:56;;;;;;;6.97;2.08;;;9.90;80.90;;;;;;5375894;21;20008;-89
2024/04/10 07:51:23;;;;;;;4.55;1.30;;;10.00;76.50;;;;;;5335223;26;20005;-90
2024/04/10 07:53:49;;;;;;;5.80;1.70;;;10.00;75.20;;;;;;5363300;26;19996;-89
2024/04/10 07:56:15;;;;;;;9.20;2.75;;;10.10;75.60;;;;;;5367410;26;20661;-91
2024/04/10 07:58:41;;;;;;;11.25;2.67;;;10.00;76.20;;;;;;5366641;26;20016;-93
2024/04/10 08:01:07;;;;;;;9.63;4.00;;;10.20;76.30;;;;;;5367217;26;20004;-93
2024/04/10 08:03:34;;;;;;;7.25;2.28;;;10.20;73.60;;;;;;5359275;26;20025;-91
2024/04/10 08:06:03;;;;;;;7.43;1.90;;;10.20;74.90;;;;;;5350513;26;20020;-89
2024/04/10 08:08:30;;;;;;;9.70;3.38;;;10.20;74.00;;;;;;5337941;26;20002;-92
2024/04/10 08:11:07;;;;;;;6.93;1.90;;;10.50;74.50;;;;;;5350192;26;20004;-90
2024/04/10 08:13:33;;;;;;;8.95;1.73;;;10.70;73.50;;;;;;5350892;26;20015;-91
2024/04/10 08:16:07;;;;;;;6.90;3.15;;;10.60;74.50;;;;;;5342384;26;19996;-90
2024/04/10 08:18:38;;;;;;;10.48;2.95;;;10.70;72.50;;;;;;5346788;26;20001;-90
2024/04/10 08:21:11;;;;;;;6.90;2.95;;;10.70;72.40;;;;;;5330704;26;20001;-90
2024/04/10 08:23:39;;;;;;;11.32;3.83;;;10.60;72.10;;;;;;5348525;26;20001;-90
2024/04/10 08:26:13;;;;;;;7.28;3.40;;;10.40;71.50;;;;;;5349636;26;20009;-91
2024/04/10 08:28:48;;;;;;;8.95;1.75;;;10.40;71.80;;;;;;5349223;26;20026;-89
2024/04/10 08:31:15;;;;;;;9.93;2.25;;;10.50;72.90;;;;;;5350297;26;20001;-91
2024/04/10 08:33:42;;;;;;;6.72;3.75;;;10.70;72.70;;;;;;5349079;26;20451;-89
2024/04/10 08:36:10;;;;;;;7.85;2.60;;;10.80;71.50;;;;;;5334997;26;20411;-91
2024/04/10 08:38:36;;;;;;;5.15;3.00;;;11.00;71.10;;;;;;5349466;26;20029;-91
2024/04/10 08:41:02;;;;;;;10.23;2.35;;;11.10;69.30;;;;;;5349425;26;20008;-90
2024/04/10 08:43:34;;;;;;;7.10;1.75;;;11.00;70.30;;;;;;5349294;26;20367;-90
2024/04/10 08:46:01;;;;;;;6.90;3.80;;;11.10;70.40;;;;;;5347840;26;19997;-91
2024/04/10 08:48:28;;;;;;;7.38;3.58;;;11.20;71.00;;;;;;5349613;26;20455;-89
2024/04/10 08:50:59;;;;;;;7.93;3.28;;;11.50;70.30;;;;;;5348415;26;20011;-90
2024/04/10 08:53:25;;;;;;;8.75;3.45;;;11.50;66.90;;;;;;5348546;26;20044;-90
2024/04/10 08:55:51;;;;;;;8.77;3.45;;;11.70;67.40;;;;;;5350433;26;20013;-89
2024/04/10 08:58:17;;;;;;;6.60;2.00;;;11.90;67.50;;;;;;5349579;26;20429;-90
2024/04/10 09:00:43;;;;;;;7.60;4.55;;;11.80;66.20;;;;;;5349581;26;19997;-91
2024/04/10 09:03:11;;;;;;;7.20;2.53;;;11.80;66.80;;;;;;5348795;26;19997;-90
2024/04/10 09:05:37;;;;;;;7.65;3.08;;;12.10;67.10;;;;;;5350625;26;20095;-89
2024/04/10 09:08:03;;;;;;;9.43;3.30;;;12.40;65.40;;;;;;5350391;26;20084;-89
2024/04/10 09:10:29;;;;;;;5.10;3.30;;;12.50;63.50;;;;;;5352729;26;20001;-89
2024/04/10 09:13:05;;;;;;;9.98;3.08;;;12.70;61.40;;;;;;5348728;26;20364;-88
2024/04/10 09:15:32;;;;;;;9.55;2.63;;;13.10;60.70;;;;;;5350386;26;20005;-91
2024/04/10 09:17:58;;;;;;;5.35;2.38;;;12.90;58.40;;;;;;5348681;26;20013;-89
2024/04/10 09:20:24;;;;;;;3.97;2.63;;;13.00;59.80;;;;;;5350558;26;20001;-89
2024/04/10 09:23:04;;;;;;;20.65;7.47;;;13.10;59.80;;;;;;5334929;26;20013;-89
2024/04/10 09:25:30;;;;;;;5.60;2.88;;;13.00;59.00;;;;;;5350765;26;20001;-89
2024/04/10 09:28:00;;;;;;;9.02;3.13;;;12.80;59.60;;;;;;5344639;26;19997;-89
2024/04/10 09:30:26;;;;;;;7.72;2.92;;;12.70;58.90;;;;;;5339360;26;20001;-89
2024/04/10 09:32:53;;;;;;;10.80;3.28;;;12.90;59.20;;;;;;5343603;26;20005;-89
2024/04/10 09:35:21;;;;;;;6.65;3.45;;;12.90;59.10;;;;;;5344127;26;20005;-91
2024/04/10 09:37:51;;;;;;;7.55;2.55;;;12.90;56.50;;;;;;5366203;26;20008;-90
2024/04/10 09:40:23;;;;;;;6.35;2.92;;;12.90;56.00;;;;;;5361100;26;19997;-89
2024/04/10 09:42:49;;;;;;;6.00;3.13;;;13.10;56.00;;;;;;5350392;26;19997;-89
2024/04/10 09:45:21;;;;;;;7.63;3.22;;;13.50;53.80;;;;;;5349306;26;20020;-90
2024/04/10 09:47:50;;;;;;;8.27;2.78;;;13.80;50.80;;;;;;5347943;26;20001;-88
2024/04/10 09:50:23;;;;;;;5.75;3.10;;;13.80;50.70;;;;;;5349145;26;20001;-90
2024/04/10 09:52:51;;;;;;;4.47;1.50;;;13.70;50.80;;;;;;5348151;26;20351;-89
2024/04/10 09:55:17;;;;;;;6.97;3.75;;;13.80;51.60;;;;;;5335998;26;20016;-89
2024/04/10 09:57:44;;;;;;;7.80;2.95;;;13.50;52.70;;;;;;5351269;26;20001;-90
2024/04/10 10:00:11;;;;;;;6.63;3.00;;;13.00;53.40;;;;;;5353329;26;20033;-89
2024/04/10 10:02:38;;;;;;;7.82;2.47;;;12.90;53.30;;;;;;5352489;26;20029;-89
2024/04/10 10:05:04;;;;;;;8.68;3.33;;;12.90;54.50;;;;;;5352215;26;20001;-90
2024/04/10 10:07:32;;;;;;;7.95;3.00;;;13.00;54.20;;;;;;5352522;26;20008;-90
2024/04/10 10:10:05;;;;;;;5.40;2.50;;;13.00;55.60;;;;;;5350526;26;20005;-90
2024/04/10 10:12:35;;;;;;;6.00;3.33;;;12.90;57.30;;;;;;5351242;26;20479;-90
2024/04/10 10:15:08;;;;;;;8.50;3.35;;;12.70;56.50;;;;;;5340084;26;20078;-89
2024/04/10 10:17:33;;;;;;;5.97;1.38;;;12.70;58.10;;;;;;5352949;26;20346;-89
2024/04/10 10:19:59;;;;;;;5.80;2.70;;;12.60;58.20;;;;;;5350360;26;20019;-89
2024/04/10 10:22:25;;;;;;;12.45;4.53;;;12.70;57.10;;;;;;5352428;26;20122;-90
2024/04/10 10:25:00;;;;;;;9.65;3.60;;;12.60;56.60;;;;;;5352416;26;19999;-90
2024/04/10 10:27:27;;;;;;;7.15;3.63;;;13.00;55.20;;;;;;5350759;26;20022;-89
2024/04/10 10:30:07;;;;;;;9.57;2.33;;;13.40;52.60;;;;;;5352994;26;19997;-89
2024/04/10 10:32:33;;;;;;;10.32;2.72;;;13.80;51.90;;;;;;5349822;26;20084;-90
2024/04/10 10:35:11;;;;;;;8.48;3.72;;;14.50;50.40;;;;;;5352362;26;20044;-89
2024/04/10 10:37:37;;;;;;;10.32;3.92;;;14.90;47.70;;;;;;5354960;26;20036;-87
2024/04/10 10:40:06;;;;;;;7.13;2.75;;;15.20;46.20;;;;;;5354822;26;20015;-90
2024/04/10 10:42:32;;;;;;;6.45;3.13;;;15.40;46.70;;;;;;5351519;26;20011;-90
2024/04/10 10:45:05;;;;;;;9.85;3.50;;;15.50;45.30;;;;;;5352517;26;20004;-89
2024/04/10 10:47:41;;;;;;;7.50;3.50;;;15.80;42.50;;;;;;5349650;26;20015;-89
2024/04/10 10:50:06;;;;;;;9.88;2.05;;;15.50;44.20;;;;;;5342361;26;20320;-89
2024/04/10 10:52:32;;;;;;;10.23;2.80;;;15.60;45.20;;;;;;5346143;26;20035;-89
2024/04/10 10:55:07;;;;;;;6.35;2.50;;;15.90;43.90;;;;;;5350958;26;20446;-90
2024/04/10 10:57:33;;;;;;;5.53;2.13;;;15.90;40.50;;;;;;5340041;26;20012;-90
2024/04/10 10:59:59;;;;;;;9.18;2.60;;;16.70;41.20;;;;;;5356842;26;20449;-90
2024/04/10 11:02:26;;;;;;;5.40;2.42;;;16.90;41.20;;;;;;5362140;26;19997;-89
2024/04/10 11:04:53;;;;;;;4.22;1.85;;;17.10;39.30;;;;;;5361534;26;20522;-91
2024/04/10 11:07:20;;;;;;;3.92;1.98;;;16.70;37.70;;;;;;5361606;26;20110;-90
2024/04/10 11:09:47;;;;;;;4.90;2.40;;;16.30;39.50;;;;;;5353356;26;20001;-89
2024/04/10 11:12:15;;;;;;;4.18;2.47;;;16.60;39.60;;;;;;5352935;26;20013;-91
2024/04/10 11:14:40;;;;;;;4.53;2.15;;;17.10;38.30;;;;;;5350348;26;20004;-90
2024/04/10 11:17:15;;;;;;;4.05;2.13;;;17.40;37.10;;;;;;5352353;26;19997;-90
2024/04/10 11:19:41;;;;;;;5.20;2.13;;;17.50;36.10;;;;;;5341542;26;20013;-91
2024/04/10 11:22:21;;;;;;;7.78;3.30;;;17.60;36.20;;;;;;5351481;26;20009;-89
2024/04/10 11:24:47;;;;;;;6.18;1.85;;;17.50;36.70;;;;;;5345036;26;20016;-91
2024/04/10 11:27:14;;;;;;;5.05;0.93;;;17.40;36.30;;;;;;5341439;26;20343;-90
2024/04/10 11:29:39;;;;;;;6.75;3.42;;;17.20;37.00;;;;;;5351653;26;20016;-90
2024/04/10 11:32:05;;;;;;;6.07;1.75;;;17.10;37.80;;;;;;5354629;26;20009;-90
2024/04/10 11:34:31;;;;;;;5.75;2.45;;;16.80;38.00;;;;;;5339478;26;20123;-91
2024/04/10 11:36:57;;;;;;;6.72;2.60;;;16.90;37.60;;;;;;5354401;26;20019;-90
2024/04/10 11:39:23;;;;;;;3.28;1.83;;;16.80;37.30;;;;;;5353937;26;20346;-90
2024/04/10 11:41:48;;;;;;;4.60;2.15;;;16.60;37.90;;;;;;5353496;26;20001;-90
2024/04/10 11:44:14;;;;;;;5.75;1.58;;;16.60;37.80;;;;;;5354408;26;20001;-90
2024/04/10 11:46:40;;;;;;;6.55;2.25;;;16.50;38.90;;;;;;5353665;26;20016;-91
2024/04/10 11:49:06;;;;;;;7.55;2.45;;;16.30;38.10;;;;;;5354765;26;20028;-89
2024/04/10 11:51:32;;;;;;;6.13;3.35;;;15.50;39.90;;;;;;5352279;26;20001;-90
2024/04/10 11:53:57;;;;;;;4.85;1.90;;;15.50;41.80;;;;;;5353791;26;19997;-90
2024/04/10 11:56:24;;;;;;;7.47;2.45;;;15.90;42.30;;;;;;5353336;26;20005;-91
2024/04/10 11:58:51;;;;;;;4.57;2.17;;;16.00;42.00;;;;;;5360126;26;19993;-91
2024/04/10 12:01:17;;;;;;;5.10;2.00;;;16.20;39.60;;;;;;5368228;26;19993;-92
2024/04/10 12:03:43;;;;;;;5.10;2.28;;;16.50;39.60;;;;;;5360926;26;20019;-91
2024/04/10 12:06:08;;;;;;;7.15;2.72;;;16.30;40.70;;;;;;5347635;26;19998;-91
2024/04/10 12:08:36;;;;;;;7.05;2.40;;;15.90;41.70;;;;;;5353230;26;20000;-90
2024/04/10 12:11:03;;;;;;;7.15;2.72;;;15.80;42.30;;;;;;5353492;26;19997;-90
2024/04/10 12:13:30;;;;;;;5.57;2.35;;;15.60;41.80;;;;;;5339708;26;19994;-90
2024/04/10 12:15:55;;;;;;;8.20;2.75;;;15.60;41.60;;;;;;5349182;26;20001;-90
2024/04/10 12:18:21;;;;;;;3.83;2.13;;;15.80;41.10;;;;;;5351167;26;20033;-89
2024/04/10 12:20:47;;;;;;;4.97;2.47;;;15.80;41.00;;;;;;5336786;26;20006;-90
2024/04/10 12:23:12;;;;;;;7.53;1.88;;;15.90;40.90;;;;;;5350222;26;20033;-90
2024/04/10 12:25:38;;;;;;;4.13;3.20;;;16.40;41.30;;;;;;5351906;26;20074;-91
2024/04/10 12:28:04;;;;;;;7.10;2.35;;;16.20;39.70;;;;;;5349143;26;20005;-89
2024/04/10 12:30:30;;;;;;;5.78;1.83;;;16.40;39.90;;;;;;5352719;26;19997;-90
2024/04/10 12:32:55;;;;;;;6.75;3.28;;;16.40;40.50;;;;;;5352322;26;20009;-91
2024/04/10 12:38:12;;;;;;;5.63;1.80;;;17.40;39.60;;;;;;5337652;26;20457;-90
2024/04/10 12:40:38;;;;;;;2.22;1.80;;;17.70;38.20;;;;;;5350372;26;20431;-91
2024/04/10 12:43:04;;;;;;;6.95;1.90;;;18.30;36.40;;;;;;5351718;26;19997;-90
2024/04/10 12:45:30;;;;;;;6.03;1.92;;;18.60;35.00;;;;;;5351924;26;20071;-91
2024/04/10 12:47:56;;;;;;;4.80;1.65;;;18.60;34.30;;;;;;5326221;26;19997;-90
2024/04/10 12:50:21;;;;;;;5.20;1.95;;;18.90;32.50;;;;;;5349381;26;20001;-90
2024/04/10 12:52:48;;;;;;;4.85;1.58;;;18.80;33.50;;;;;;5349244;26;20056;-91
2024/04/10 12:55:14;;;;;;;6.10;1.80;;;18.10;34.80;;;;;;5348917;26;20001;-90
2024/04/10 12:57:40;;;;;;;4.55;1.42;;;17.80;35.30;;;;;;5349095;26;20004;-91